Earby, United Kingdom
Current Conditions -  °F | °C
As of 8:20 AM on Saturday 29 Nov 2014 (Local Time) from EGNM Reporting Station
Drizzle Drizzle  
Wind Chill: 41°   Ceiling: Unl
Heat Index: 46°   Visibility: 0.43mi
Dew Point: 46°   Wind: 10mph
Humidity: 100%   Direction: 100°E
Pressure: 29.85"   Gusts: NA
Location:  53.92°N, 2.14°W
Report Text: EGNM 290820Z 10009KT 0700 R14/P1500 -DZ FG VV/// 08/08 Q1011
Loading
Personal Weather Stations






























Interactive Weather Map New forecast layout! Learn more

10-Day Weather Forecast

Advertisements
Track Severe Weather on mobile